Time;durP1;ratioP1;P1;durP2;ratioP2;P2;SDS_P1;SDS_P2;PMS_P1;PMS_P2;Temp;Humidity;BMP_temperature;BMP_pressure;BME280_temperature;BME280_humidity;BME280_pressure;Samples;Min_cycle;Max_cycle;Signal;HPM_P1;HPM_P2
2021/09/20 00:02:00;;;;;;;4.25;0.80;;;18.30;62.10;;;;;;6266921;28;20036;-77
2021/09/20 00:05:01;;;;;;;0.98;0.80;;;18.20;62.20;;;;;;6250029;28;20115;-77
2021/09/20 00:08:03;;;;;;;3.13;0.98;;;18.20;62.40;;;;;;6250089;28;20332;-77
2021/09/20 00:11:04;;;;;;;3.33;1.15;;;18.20;62.60;;;;;;6250175;28;20518;-77
2021/09/20 00:14:05;;;;;;;1.45;0.90;;;18.10;62.70;;;;;;6262097;28;20128;-78
2021/09/20 00:17:07;;;;;;;1.00;0.75;;;18.10;63.00;;;;;;6257199;28;20033;-78
2021/09/20 00:20:10;;;;;;;3.25;1.00;;;18.00;63.20;;;;;;6272630;28;20040;-78
2021/09/20 00:23:11;;;;;;;1.52;0.60;;;18.00;63.30;;;;;;6273530;28;20040;-75
2021/09/20 00:26:12;;;;;;;1.33;0.88;;;18.00;63.60;;;;;;6250666;28;20026;-77
2021/09/20 00:29:13;;;;;;;1.67;0.65;;;18.00;63.70;;;;;;6250559;28;20046;-78
2021/09/20 00:32:14;;;;;;;0.85;0.70;;;18.00;63.90;;;;;;6254438;28;20037;-78
2021/09/20 00:35:15;;;;;;;2.25;1.10;;;17.90;64.30;;;;;;6216418;28;20068;-77
2021/09/20 00:38:16;;;;;;;4.35;1.20;;;18.00;64.50;;;;;;6249525;28;20099;-78
2021/09/20 00:41:16;;;;;;;2.15;1.08;;;18.00;64.50;;;;;;6250514;28;20060;-77
2021/09/20 00:44:17;;;;;;;1.65;1.13;;;18.00;64.40;;;;;;6249384;28;20048;-77
2021/09/20 00:47:18;;;;;;;4.53;1.27;;;18.00;64.30;;;;;;6249546;28;20044;-77
2021/09/20 00:50:19;;;;;;;3.50;1.30;;;18.10;64.10;;;;;;6258972;28;20040;-77
2021/09/20 00:53:20;;;;;;;2.40;0.90;;;18.10;64.10;;;;;;6256609;28;20526;-77
2021/09/20 00:56:21;;;;;;;1.40;1.20;;;18.00;63.80;;;;;;6272829;28;20069;-77
2021/09/20 00:59:22;;;;;;;2.45;1.35;;;18.00;63.70;;;;;;6249119;28;20071;-77
2021/09/20 01:02:23;;;;;;;1.27;1.05;;;18.00;63.70;;;;;;6250885;28;20029;-77
2021/09/20 01:05:24;;;;;;;2.03;0.90;;;18.10;63.80;;;;;;6242939;28;20064;-77
2021/09/20 01:08:27;;;;;;;2.08;1.10;;;18.10;63.80;;;;;;6248106;28;20128;-77
2021/09/20 01:11:28;;;;;;;2.60;1.40;;;18.10;63.60;;;;;;6241690;28;20037;-77
2021/09/20 01:14:29;;;;;;;5.50;1.40;;;18.10;63.70;;;;;;6250148;28;20411;-77
2021/09/20 01:17:30;;;;;;;4.75;1.38;;;18.10;63.50;;;;;;6254100;28;20074;-76
2021/09/20 01:20:31;;;;;;;5.13;1.15;;;18.20;63.60;;;;;;6242156;28;20034;-77
2021/09/20 01:23:32;;;;;;;2.42;1.15;;;18.20;63.60;;;;;;6260058;28;20056;-77
2021/09/20 01:26:33;;;;;;;2.17;1.08;;;18.20;63.70;;;;;;6261255;28;20045;-77
2021/09/20 01:29:36;;;;;;;2.35;1.33;;;18.10;63.60;;;;;;6231931;28;20053;-76
2021/09/20 01:32:37;;;;;;;1.88;1.13;;;18.10;63.70;;;;;;6256390;28;20029;-77
2021/09/20 01:35:38;;;;;;;6.22;1.05;;;18.10;63.90;;;;;;6235074;28;20037;-76
2021/09/20 01:38:39;;;;;;;12.15;1.17;;;18.10;64.00;;;;;;6256559;28;20021;-77
2021/09/20 01:41:40;;;;;;;1.58;1.08;;;18.00;64.00;;;;;;6272682;28;20399;-77
2021/09/20 01:44:41;;;;;;;2.47;1.10;;;18.00;64.10;;;;;;6275509;28;20114;-76
2021/09/20 01:47:43;;;;;;;3.40;1.13;;;18.00;64.10;;;;;;6272199;28;20048;-76
2021/09/20 01:50:45;;;;;;;1.10;0.82;;;18.00;64.20;;;;;;6268528;28;20399;-76
2021/09/20 01:53:45;;;;;;;2.15;1.00;;;18.00;64.30;;;;;;6256378;28;20056;-76
2021/09/20 01:56:46;;;;;;;1.70;1.00;;;18.00;64.40;;;;;;6248008;28;20044;-76
2021/09/20 01:59:47;;;;;;;2.88;1.35;;;18.00;64.20;;;;;;6244678;28;20068;-76
2021/09/20 02:02:48;;;;;;;3.85;0.95;;;18.10;64.20;;;;;;6239186;28;20029;-77
2021/09/20 02:05:49;;;;;;;4.18;1.48;;;18.10;64.20;;;;;;6258931;28;20052;-77
2021/09/20 02:08:52;;;;;;;2.63;1.63;;;18.10;64.30;;;;;;6273059;28;20029;-77
2021/09/20 02:11:53;;;;;;;2.33;1.42;;;18.10;64.40;;;;;;6267731;28;20025;-78
2021/09/20 02:14:54;;;;;;;5.10;1.70;;;18.10;64.50;;;;;;6248036;28;20052;-77
2021/09/20 02:17:55;;;;;;;2.13;1.45;;;18.10;64.50;;;;;;6249080;28;20056;-77
2021/09/20 02:20:56;;;;;;;3.03;1.83;;;18.10;64.60;;;;;;6259098;28;20033;-77
2021/09/20 02:23:57;;;;;;;5.50;2.38;;;18.10;64.40;;;;;;6274305;28;20412;-77
2021/09/20 02:26:58;;;;;;;6.20;3.60;;;18.00;64.10;;;;;;6246140;28;20340;-77
2021/09/20 02:30:01;;;;;;;7.70;2.00;;;18.00;64.10;;;;;;6252290;28;20041;-78
2021/09/20 02:33:02;;;;;;;8.20;1.98;;;17.90;64.30;;;;;;6251543;28;20029;-78
2021/09/20 02:36:05;;;;;;;1.55;1.20;;;17.90;64.40;;;;;;6227992;28;20049;-78
2021/09/20 02:39:06;;;;;;;0.95;0.80;;;17.80;64.50;;;;;;6237252;28;20044;-77
2021/09/20 02:42:07;;;;;;;1.55;0.80;;;17.80;64.50;;;;;;6249818;28;20030;-78
2021/09/20 02:45:09;;;;;;;2.97;0.85;;;17.90;64.60;;;;;;6252142;28;20044;-78
2021/09/20 02:48:10;;;;;;;0.88;0.77;;;17.90;64.50;;;;;;6272263;28;20029;-78
2021/09/20 02:51:11;;;;;;;0.88;0.70;;;17.90;64.50;;;;;;6276927;28;20033;-77
2021/09/20 02:54:12;;;;;;;2.97;0.73;;;17.90;64.40;;;;;;6275770;28;20041;-78
2021/09/20 02:57:13;;;;;;;3.78;1.02;;;18.00;65.20;;;;;;6220483;28;20034;-78
2021/09/20 03:00:15;;;;;;;1.65;0.90;;;18.00;64.40;;;;;;6235458;28;20091;-78
2021/09/20 03:03:17;;;;;;;2.42;0.75;;;18.00;64.30;;;;;;6253005;28;20102;-75
2021/09/20 03:06:18;;;;;;;0.95;0.60;;;18.00;64.20;;;;;;6235020;28;20040;-77
2021/09/20 03:09:18;;;;;;;2.78;0.60;;;18.00;64.20;;;;;;6251981;28;20117;-77
2021/09/20 03:12:19;;;;;;;0.95;0.65;;;18.00;64.20;;;;;;6252313;28;20374;-77
2021/09/20 03:15:20;;;;;;;4.70;0.73;;;17.90;64.20;;;;;;6252400;28;20030;-77
2021/09/20 03:18:21;;;;;;;0.75;0.52;;;17.90;64.20;;;;;;6251458;28;20117;-78
2021/09/20 03:21:24;;;;;;;0.65;0.60;;;17.90;64.30;;;;;;6269049;28;20036;-78
2021/09/20 03:24:25;;;;;;;1.08;0.82;;;17.90;64.40;;;;;;6274945;28;20044;-78
2021/09/20 03:27:26;;;;;;;2.58;0.80;;;17.90;64.50;;;;;;6277947;28;20345;-76
2021/09/20 03:30:27;;;;;;;2.83;1.00;;;17.20;64.10;;;;;;6249369;28;20051;-77
2021/09/20 03:33:27;;;;;;;1.23;0.77;;;18.00;64.60;;;;;;6250525;28;20065;-77
2021/09/20 03:36:28;;;;;;;4.82;1.10;;;17.90;64.50;;;;;;6275204;28;20032;-77
2021/09/20 03:39:30;;;;;;;1.45;0.95;;;17.90;64.50;;;;;;6231550;28;20030;-77
2021/09/20 03:42:31;;;;;;;1.95;0.98;;;18.00;64.50;;;;;;6224609;28;20414;-77
2021/09/20 03:45:31;;;;;;;3.03;0.73;;;17.90;64.60;;;;;;6235383;28;20056;-77
2021/09/20 03:48:32;;;;;;;0.95;0.80;;;17.90;64.70;;;;;;6248416;28;20109;-77
2021/09/20 03:51:33;;;;;;;2.42;0.70;;;17.90;64.90;;;;;;6249026;28;20040;-77
2021/09/20 03:54:35;;;;;;;0.50;0.50;;;17.80;64.70;;;;;;6242923;28;20033;-77
2021/09/20 03:57:37;;;;;;;2.75;0.88;;;17.80;64.80;;;;;;6245047;28;20059;-77
2021/09/20 04:00:38;;;;;;;3.70;0.90;;;17.80;64.70;;;;;;6257494;28;20025;-78
2021/09/20 04:03:39;;;;;;;2.13;0.88;;;17.80;65.00;;;;;;6267492;28;20025;-78
2021/09/20 04:06:40;;;;;;;0.82;0.60;;;17.80;65.10;;;;;;6274782;28;20443;-75
2021/09/20 04:09:41;;;;;;;0.73;0.60;;;17.80;65.10;;;;;;6265705;28;20040;-78
2021/09/20 04:12:43;;;;;;;0.77;0.60;;;17.80;65.00;;;;;;6273716;28;20417;-78
2021/09/20 04:15:44;;;;;;;6.95;1.10;;;17.70;65.20;;;;;;6257274;28;20331;-78
2021/09/20 04:18:45;;;;;;;1.10;0.77;;;17.70;65.40;;;;;;6273825;28;20017;-78
2021/09/20 04:21:46;;;;;;;1.20;0.80;;;17.60;65.60;;;;;;6273166;28;20045;-76
2021/09/20 04:24:47;;;;;;;17.50;1.30;;;17.60;65.80;;;;;;6273920;28;20334;-76
2021/09/20 04:27:48;;;;;;;4.35;1.40;;;17.60;66.10;;;;;;6274957;28;20053;-77
2021/09/20 04:30:49;;;;;;;1.10;0.70;;;17.50;66.30;;;;;;6268262;28;20035;-76
2021/09/20 04:33:51;;;;;;;2.08;0.50;;;17.50;66.40;;;;;;6268902;28;20033;-77
2021/09/20 04:36:52;;;;;;;2.33;0.90;;;17.50;66.60;;;;;;6249556;28;20350;-77
2021/09/20 04:39:53;;;;;;;2.20;0.75;;;17.50;66.50;;;;;;6249647;28;20040;-77
2021/09/20 04:42:54;;;;;;;3.03;0.77;;;17.60;66.40;;;;;;6249504;28;20030;-77
2021/09/20 04:45:55;;;;;;;4.63;0.73;;;17.60;66.20;;;;;;6249876;28;20041;-77
2021/09/20 04:48:56;;;;;;;2.47;0.68;;;17.50;66.00;;;;;;6266975;28;20116;-77
2021/09/20 04:51:57;;;;;;;0.93;0.73;;;17.50;66.10;;;;;;6265484;28;20045;-77
2021/09/20 04:54:58;;;;;;;4.47;1.05;;;17.60;66.30;;;;;;6272542;28;20052;-77
2021/09/20 04:58:08;;;;;;;0.60;0.60;;;17.50;66.10;;;;;;6238759;28;20116;-77
2021/09/20 05:01:09;;;;;;;1.42;0.80;;;17.60;66.30;;;;;;6249676;28;20037;-77
2021/09/20 05:04:10;;;;;;;0.95;0.60;;;17.60;66.40;;;;;;6267812;28;20442;-77
2021/09/20 05:07:11;;;;;;;4.32;1.20;;;17.60;66.40;;;;;;6272454;28;20036;-77
2021/09/20 05:10:12;;;;;;;3.17;1.10;;;17.60;66.30;;;;;;6272510;28;20047;-76
2021/09/20 05:13:13;;;;;;;0.80;0.80;;;17.60;66.20;;;;;;6273447;28;20473;-77
2021/09/20 05:16:15;;;;;;;1.10;1.00;;;17.60;66.40;;;;;;6273353;28;20056;-78
2021/09/20 05:19:16;;;;;;;1.45;0.85;;;17.60;66.40;;;;;;6272733;28;20029;-78
2021/09/20 05:22:17;;;;;;;5.35;1.17;;;17.60;66.40;;;;;;6270615;28;20413;-77
2021/09/20 05:25:18;;;;;;;0.93;0.68;;;17.60;66.10;;;;;;6262703;28;20083;-76
2021/09/20 05:28:19;;;;;;;1.45;1.00;;;17.50;66.00;;;;;;6272823;28;20044;-77
2021/09/20 05:31:20;;;;;;;5.95;0.90;;;17.50;66.10;;;;;;6263955;28;20029;-77
2021/09/20 05:34:22;;;;;;;5.20;1.10;;;17.40;66.10;;;;;;6251082;28;20076;-77
2021/09/20 05:37:23;;;;;;;2.78;0.82;;;17.40;66.30;;;;;;6256467;28;20032;-77
2021/09/20 05:40:24;;;;;;;5.93;1.20;;;17.40;66.40;;;;;;6249775;28;20111;-78
2021/09/20 05:43:26;;;;;;;4.22;1.20;;;17.40;66.70;;;;;;6248742;28;20446;-76
2021/09/20 05:46:27;;;;;;;0.80;0.70;;;17.40;67.60;;;;;;6268454;28;20047;-77
2021/09/20 05:49:27;;;;;;;2.08;1.13;;;17.50;66.90;;;;;;6261466;28;20040;-77
2021/09/20 05:52:28;;;;;;;4.55;1.15;;;17.50;66.80;;;;;;6249264;28;20029;-77
2021/09/20 05:55:29;;;;;;;1.00;0.80;;;17.50;66.60;;;;;;6254770;28;20132;-78
2021/09/20 05:58:30;;;;;;;2.97;0.95;;;17.50;66.60;;;;;;6253892;28;20468;-76
2021/09/20 06:01:31;;;;;;;1.88;1.02;;;17.50;66.40;;;;;;6274515;28;20401;-77
2021/09/20 06:04:33;;;;;;;3.42;1.48;;;17.50;66.30;;;;;;6276564;28;20048;-77
2021/09/20 06:07:34;;;;;;;1.33;1.02;;;17.60;66.30;;;;;;6276442;28;20036;-77
2021/09/20 06:10:37;;;;;;;2.78;1.08;;;17.60;66.30;;;;;;6275706;28;20053;-77
2021/09/20 06:13:38;;;;;;;1.92;1.05;;;17.70;66.20;;;;;;6276039;28;20055;-77
2021/09/20 06:16:39;;;;;;;1.48;1.00;;;17.70;66.00;;;;;;6276395;28;20033;-77
2021/09/20 06:19:40;;;;;;;3.38;1.10;;;17.80;65.90;;;;;;6235916;28;20044;-76
2021/09/20 06:22:41;;;;;;;3.83;1.10;;;17.90;65.90;;;;;;6252141;28;20079;-78
2021/09/20 06:25:42;;;;;;;1.27;0.85;;;17.90;65.80;;;;;;6252223;28;20029;-77
2021/09/20 06:28:43;;;;;;;1.30;0.85;;;18.00;65.60;;;;;;6258405;28;20370;-77
2021/09/20 06:31:44;;;;;;;1.45;1.10;;;18.00;65.30;;;;;;6254120;28;20413;-78
2021/09/20 06:34:45;;;;;;;3.22;1.02;;;18.00;65.30;;;;;;6272656;28;20037;-78
2021/09/20 06:37:46;;;;;;;2.08;0.75;;;18.00;65.10;;;;;;6275475;28;20296;-77
2021/09/20 06:40:47;;;;;;;0.73;0.55;;;18.10;65.10;;;;;;6258601;28;20029;-78
2021/09/20 06:43:48;;;;;;;4.70;0.90;;;18.10;64.50;;;;;;6258663;28;20044;-77
2021/09/20 06:46:49;;;;;;;1.77;0.80;;;18.00;64.10;;;;;;6276902;28;20339;-77
2021/09/20 06:49:50;;;;;;;1.58;0.90;;;18.00;64.80;;;;;;6270800;28;20127;-77
2021/09/20 06:52:53;;;;;;;6.97;1.65;;;18.00;63.90;;;;;;6275032;28;20029;-79
2021/09/20 06:55:54;;;;;;;1.23;0.90;;;18.00;63.70;;;;;;6275502;28;20044;-77
2021/09/20 06:58:56;;;;;;;1.23;0.80;;;18.00;63.60;;;;;;6275242;28;20037;-78
2021/09/20 07:01:57;;;;;;;1.25;0.88;;;18.00;63.60;;;;;;6269359;28;20132;-77
2021/09/20 07:04:57;;;;;;;0.95;0.80;;;18.00;63.70;;;;;;6251521;28;20062;-78
2021/09/20 07:08:00;;;;;;;5.80;1.88;;;18.00;63.70;;;;;;6273830;28;20024;-76
2021/09/20 07:11:01;;;;;;;1.25;0.98;;;18.00;63.90;;;;;;6274642;28;20032;-78
2021/09/20 07:14:02;;;;;;;1.23;0.63;;;18.00;63.80;;;;;;6274738;28;20063;-79
2021/09/20 07:17:04;;;;;;;1.20;0.80;;;18.00;63.70;;;;;;6264173;28;20040;-77
2021/09/20 07:20:06;;;;;;;3.22;0.73;;;18.00;64.10;;;;;;6237758;28;20056;-79
2021/09/20 07:23:07;;;;;;;2.58;0.90;;;18.00;63.00;;;;;;6255067;28;20488;-78
2021/09/20 07:26:08;;;;;;;2.35;0.95;;;18.00;63.10;;;;;;6264832;28;20026;-77
2021/09/20 07:29:09;;;;;;;1.80;0.85;;;18.10;63.20;;;;;;6252102;28;20402;-78
2021/09/20 07:32:10;;;;;;;1.38;0.80;;;18.10;63.00;;;;;;6254978;28;20045;-78
2021/09/20 07:35:13;;;;;;;2.63;0.95;;;18.10;62.80;;;;;;6252894;28;20029;-81
2021/09/20 07:38:14;;;;;;;2.58;0.70;;;18.10;62.80;;;;;;6264065;28;20029;-77
2021/09/20 07:41:15;;;;;;;1.27;1.00;;;18.20;62.90;;;;;;6247476;28;20026;-78
2021/09/20 07:44:16;;;;;;;3.40;0.95;;;18.20;62.60;;;;;;6250475;28;20419;-77
2021/09/20 07:47:18;;;;;;;2.50;1.40;;;18.30;62.60;;;;;;6274462;28;20358;-78
2021/09/20 07:50:21;;;;;;;0.98;0.65;;;18.40;62.50;;;;;;6273295;28;20033;-77
2021/09/20 07:53:22;;;;;;;2.72;0.93;;;18.40;62.30;;;;;;6256079;28;20422;-76
2021/09/20 07:56:23;;;;;;;1.67;0.93;;;18.50;62.50;;;;;;6269915;28;20021;-77
2021/09/20 07:59:24;;;;;;;1.45;0.95;;;18.50;62.40;;;;;;6250009;28;20025;-77
2021/09/20 08:02:25;;;;;;;1.95;1.17;;;18.60;62.10;;;;;;6235243;28;20045;-77
2021/09/20 08:05:27;;;;;;;1.30;1.00;;;18.60;61.80;;;;;;6273386;28;20035;-78
2021/09/20 08:08:28;;;;;;;4.90;1.50;;;18.70;61.80;;;;;;6254539;28;20029;-77
2021/09/20 08:11:29;;;;;;;5.60;1.00;;;18.70;61.60;;;;;;6252167;28;20056;-77
2021/09/20 08:14:30;;;;;;;1.52;0.80;;;18.80;61.50;;;;;;6256947;28;20053;-77
2021/09/20 08:17:33;;;;;;;1.02;0.77;;;18.80;61.50;;;;;;6273082;28;20328;-77
2021/09/20 08:20:34;;;;;;;1.25;0.75;;;18.80;61.30;;;;;;6270103;28;20028;-77
2021/09/20 08:23:36;;;;;;;1.90;1.05;;;18.90;61.20;;;;;;6266903;28;20021;-78
2021/09/20 08:26:36;;;;;;;3.22;0.90;;;19.00;60.90;;;;;;6232535;28;20030;-77
2021/09/20 08:29:38;;;;;;;2.40;1.33;;;19.10;60.70;;;;;;6249914;28;20052;-78
2021/09/20 08:32:39;;;;;;;4.70;1.38;;;19.20;60.50;;;;;;6252173;28;20462;-77
2021/09/20 08:35:40;;;;;;;4.10;0.93;;;19.30;60.40;;;;;;6248608;28;20044;-78
2021/09/20 08:38:41;;;;;;;3.42;1.15;;;19.40;60.40;;;;;;6248743;28;20026;-77
2021/09/20 08:41:43;;;;;;;1.63;1.02;;;19.40;60.10;;;;;;6248820;28;20030;-77
2021/09/20 08:44:44;;;;;;;4.35;1.65;;;19.50;60.10;;;;;;6249828;28;20033;-77
2021/09/20 08:47:49;;;;;;;1.48;0.90;;;19.50;59.90;;;;;;6249579;28;20367;-78
2021/09/20 08:50:50;;;;;;;4.40;1.15;;;19.50;60.00;;;;;;6257414;28;20078;-77
2021/09/20 08:53:51;;;;;;;4.20;1.70;;;19.60;59.80;;;;;;6272577;28;20040;-77
2021/09/20 08:56:53;;;;;;;3.70;1.45;;;19.60;59.50;;;;;;6272685;28;20354;-77
2021/09/20 08:59:54;;;;;;;6.18;1.70;;;19.70;59.30;;;;;;6272418;28;20052;-77
2021/09/20 09:02:55;;;;;;;5.40;1.17;;;19.70;58.90;;;;;;6266300;28;20029;-77
2021/09/20 09:05:57;;;;;;;5.00;1.20;;;19.60;58.70;;;;;;6273338;28;20029;-77
2021/09/20 09:08:58;;;;;;;3.95;1.48;;;19.70;58.60;;;;;;6230977;28;20049;-77
2021/09/20 09:12:18;;;;;;;3.13;1.23;;;19.70;58.60;;;;;;6255641;28;20454;-77
2021/09/20 09:15:23;;;;;;;3.67;1.23;;;19.80;58.60;;;;;;6245314;28;20489;-78
2021/09/20 09:18:23;;;;;;;3.40;1.50;;;19.90;58.30;;;;;;6230125;28;20033;-78
2021/09/20 09:21:32;;;;;;;3.47;1.30;;;19.90;58.10;;;;;;6230740;28;20478;-78
2021/09/20 09:24:33;;;;;;;2.58;1.02;;;20.00;57.90;;;;;;6222784;28;20049;-76
2021/09/20 09:27:37;;;;;;;2.05;1.10;;;20.10;58.00;;;;;;6223623;28;20380;-76
2021/09/20 09:30:46;;;;;;;2.45;1.42;;;20.20;58.10;;;;;;6226285;28;20033;-77
2021/09/20 09:33:47;;;;;;;3.70;1.17;;;20.40;58.00;;;;;;6235161;28;20510;-79
2021/09/20 09:36:49;;;;;;;2.25;1.40;;;20.50;57.80;;;;;;6245984;28;20034;-78
2021/09/20 09:40:03;;;;;;;2.10;1.25;;;20.60;57.70;;;;;;6247347;28;20408;-77
2021/09/20 09:43:04;;;;;;;2.22;1.48;;;20.70;57.50;;;;;;6222200;28;20061;-77
2021/09/20 09:46:22;;;;;;;2.53;1.27;;;20.80;57.40;;;;;;6223082;28;20042;-78
2021/09/20 09:49:24;;;;;;;1.97;1.00;;;20.80;57.20;;;;;;6263045;28;20496;-77
2021/09/20 09:52:36;;;;;;;2.33;1.20;;;20.90;57.00;;;;;;6269836;28;20033;-79
2021/09/20 09:55:37;;;;;;;3.65;1.35;;;21.00;57.00;;;;;;6231252;28;20053;-77
2021/09/20 09:58:38;;;;;;;1.88;1.20;;;21.10;56.90;;;;;;6246182;28;20389;-77
2021/09/20 10:01:40;;;;;;;6.75;1.90;;;21.10;56.70;;;;;;6252402;28;20037;-76
2021/09/20 10:04:55;;;;;;;2.20;1.40;;;21.20;56.50;;;;;;6261709;28;20120;-77
2021/09/20 10:07:56;;;;;;;0.80;0.80;;;21.30;56.30;;;;;;6269663;28;20037;-77
2021/09/20 10:10:58;;;;;;;4.13;1.27;;;21.20;56.10;;;;;;6250135;28;20367;-77
2021/09/20 10:13:59;;;;;;;1.40;1.10;;;21.30;56.00;;;;;;6258201;28;20033;-77
2021/09/20 10:17:00;;;;;;;2.55;1.30;;;21.30;55.90;;;;;;6253552;28;20350;-77
2021/09/20 10:20:04;;;;;;;6.00;1.65;;;21.40;55.70;;;;;;6266140;28;20029;-78
2021/09/20 10:23:05;;;;;;;6.05;1.42;;;21.50;55.50;;;;;;6262304;28;20442;-78
2021/09/20 10:26:06;;;;;;;1.70;1.15;;;21.60;55.40;;;;;;6246893;28;20026;-77
2021/09/20 10:29:10;;;;;;;2.47;1.10;;;21.80;55.10;;;;;;6245945;28;20069;-76
2021/09/20 10:32:12;;;;;;;1.40;1.10;;;22.00;54.80;;;;;;6254954;28;20049;-76
2021/09/20 10:35:31;;;;;;;1.38;0.85;;;22.20;54.40;;;;;;6256233;28;20056;-78
2021/09/20 10:38:33;;;;;;;2.65;1.00;;;22.40;53.90;;;;;;6264231;28;20342;-77
2021/09/20 10:41:37;;;;;;;1.52;1.33;;;22.60;53.30;;;;;;6270831;28;20040;-77
2021/09/20 10:44:39;;;;;;;2.72;0.88;;;22.80;52.90;;;;;;6271698;28;20021;-77
2021/09/20 10:47:44;;;;;;;1.63;0.93;;;22.90;52.20;;;;;;6261533;28;20036;-77
2021/09/20 10:50:51;;;;;;;3.72;0.98;;;23.00;51.90;;;;;;6245294;28;20106;-78
2021/09/20 10:54:17;;;;;;;2.47;0.50;;;23.10;51.70;;;;;;6276545;28;20070;-77
2021/09/20 10:57:19;;;;;;;1.40;0.77;;;23.30;51.20;;;;;;6293333;28;20174;-77
2021/09/20 11:00:24;;;;;;;0.45;0.35;;;23.40;50.70;;;;;;6288675;28;20048;-79
2021/09/20 11:03:49;;;;;;;0.50;0.50;;;23.50;50.60;;;;;;6271159;28;20036;-77
2021/09/20 11:07:11;;;;;;;0.90;0.40;;;23.40;50.50;;;;;;6262522;28;20067;-77
2021/09/20 11:10:13;;;;;;;1.35;0.70;;;23.40;50.60;;;;;;6257044;28;20033;-77
2021/09/20 11:13:14;;;;;;;4.10;1.40;;;23.60;50.70;;;;;;6256226;28;20354;-78
2021/09/20 11:16:50;;;;;;;1.88;0.45;;;23.90;50.20;;;;;;6272432;28;20048;-78
2021/09/20 11:19:56;;;;;;;4.03;1.25;;;24.20;49.90;;;;;;6268814;28;20029;-77
2021/09/20 11:23:15;;;;;;;4.53;0.80;;;24.50;49.70;;;;;;6250438;28;20047;-77
2021/09/20 11:26:19;;;;;;;1.55;0.85;;;24.60;49.60;;;;;;6249949;28;20025;-77
2021/09/20 11:29:23;;;;;;;2.58;0.90;;;24.80;49.20;;;;;;6238210;28;20041;-77
2021/09/20 11:32:25;;;;;;;3.08;1.08;;;25.10;48.70;;;;;;6255706;28;20075;-79
2021/09/20 11:35:29;;;;;;;4.63;1.40;;;25.30;48.30;;;;;;6272932;28;20446;-77
2021/09/20 11:38:30;;;;;;;5.32;1.08;;;25.30;48.10;;;;;;6272551;28;20429;-78
2021/09/20 11:41:32;;;;;;;9.05;2.65;;;25.40;48.00;;;;;;6254903;28;20063;-77
2021/09/20 11:44:33;;;;;;;3.00;1.10;;;25.50;47.80;;;;;;6225417;28;20041;-77
2021/09/20 11:47:45;;;;;;;2.20;1.08;;;25.40;47.40;;;;;;6210981;28;20033;-76
2021/09/20 11:50:46;;;;;;;3.25;1.20;;;25.20;47.20;;;;;;6249553;28;20037;-77
2021/09/20 11:53:47;;;;;;;3.17;0.88;;;24.90;47.60;;;;;;6260841;28;20037;-77
2021/09/20 11:56:48;;;;;;;1.88;0.98;;;24.70;48.00;;;;;;6246960;28;20350;-77
2021/09/20 11:59:51;;;;;;;1.02;0.70;;;24.50;48.30;;;;;;6247270;28;20128;-78
2021/09/20 12:02:54;;;;;;;3.00;1.00;;;24.40;48.40;;;;;;6204697;28;20195;-77
2021/09/20 12:06:00;;;;;;;1.13;0.82;;;24.30;48.30;;;;;;6234926;28;20052;-78
2021/09/20 12:09:03;;;;;;;4.82;1.17;;;24.20;48.30;;;;;;6270081;28;20040;-78
2021/09/20 12:12:06;;;;;;;2.65;0.90;;;24.20;48.20;;;;;;6267728;28;20049;-78
2021/09/20 12:15:13;;;;;;;1.08;0.90;;;24.30;47.90;;;;;;6270813;28;20110;-78
2021/09/20 12:18:16;;;;;;;4.55;1.40;;;24.70;47.00;;;;;;6230431;28;20049;-77
2021/09/20 12:21:19;;;;;;;1.05;0.75;;;25.00;46.40;;;;;;6255968;28;20082;-77
2021/09/20 12:24:21;;;;;;;1.83;0.80;;;25.00;46.10;;;;;;6271589;28;20032;-77
2021/09/20 12:27:22;;;;;;;6.13;1.05;;;25.10;46.00;;;;;;6271511;28;20051;-77
2021/09/20 12:30:26;;;;;;;1.73;0.73;;;25.10;45.80;;;;;;6243244;28;20044;-78
2021/09/20 12:33:27;;;;;;;3.83;0.80;;;24.90;45.70;;;;;;6256103;28;20044;-78
2021/09/20 12:36:34;;;;;;;4.20;0.70;;;24.80;45.70;;;;;;6269704;28;20364;-77
2021/09/20 12:39:37;;;;;;;2.60;0.70;;;24.70;45.80;;;;;;6270672;28;20117;-77
2021/09/20 12:42:38;;;;;;;1.35;0.70;;;24.70;45.90;;;;;;6271729;28;20124;-77
2021/09/20 12:45:44;;;;;;;1.77;0.63;;;25.00;45.80;;;;;;6262332;28;20032;-77
2021/09/20 12:48:53;;;;;;;4.78;1.00;;;24.90;45.60;;;;;;6226811;28;20022;-77
2021/09/20 12:51:54;;;;;;;2.20;1.38;;;24.80;45.50;;;;;;6244255;28;20032;-78
2021/09/20 12:54:55;;;;;;;4.57;1.15;;;24.80;45.50;;;;;;6268187;28;20053;-78
2021/09/20 12:57:56;;;;;;;0.88;0.77;;;24.60;45.70;;;;;;6270661;28;20029;-78
2021/09/20 13:00:58;;;;;;;2.22;0.68;;;24.40;46.40;;;;;;6271045;28;20044;-78
2021/09/20 13:04:01;;;;;;;2.38;0.60;;;24.20;47.00;;;;;;6263778;28;20124;-77
2021/09/20 13:07:11;;;;;;;8.43;1.20;;;24.00;47.60;;;;;;6251870;28;20028;-77
2021/09/20 13:10:17;;;;;;;2.05;0.50;;;23.90;48.30;;;;;;6268426;28;20021;-77
2021/09/20 13:13:38;;;;;;;1.55;0.63;;;23.80;49.00;;;;;;6252377;28;20488;-76
2021/09/20 13:16:41;;;;;;;1.15;0.68;;;23.60;49.30;;;;;;6270477;28;20036;-77
2021/09/20 13:20:08;;;;;;;2.17;1.35;;;23.50;49.70;;;;;;6269685;28;20039;-77
2021/09/20 13:23:12;;;;;;;0.90;0.60;;;23.30;49.90;;;;;;6249710;28;20087;-76
2021/09/20 13:26:13;;;;;;;0.52;0.50;;;23.20;50.10;;;;;;6268325;28;20048;-76
2021/09/20 13:29:15;;;;;;;3.72;0.80;;;23.10;50.30;;;;;;6261054;28;20034;-78
2021/09/20 13:32:16;;;;;;;0.55;0.55;;;23.00;50.50;;;;;;6247971;28;20021;-78
2021/09/20 13:35:22;;;;;;;1.25;0.88;;;23.10;50.60;;;;;;6268148;28;20043;-77
2021/09/20 13:38:25;;;;;;;2.83;1.58;;;23.00;50.40;;;;;;6229676;28;20512;-77
2021/09/20 13:41:26;;;;;;;1.73;0.65;;;22.90;50.20;;;;;;6261044;28;20025;-77
2021/09/20 13:44:28;;;;;;;0.68;0.65;;;22.80;50.00;;;;;;6261379;28;20063;-77
2021/09/20 13:47:29;;;;;;;1.50;0.75;;;22.70;49.90;;;;;;6244662;28;20103;-78
2021/09/20 13:50:31;;;;;;;0.32;0.32;;;22.50;50.00;;;;;;6262866;28;20111;-77
2021/09/20 13:53:32;;;;;;;1.65;0.85;;;22.30;50.30;;;;;;6259427;28;20030;-77
2021/09/20 13:56:33;;;;;;;4.68;0.50;;;22.20;51.00;;;;;;6254096;28;20048;-77
2021/09/20 13:59:34;;;;;;;1.52;0.80;;;22.10;51.40;;;;;;6248214;28;20033;-77
2021/09/20 14:02:36;;;;;;;4.97;2.63;;;22.10;51.50;;;;;;6240616;28;20021;-77
2021/09/20 14:05:42;;;;;;;5.78;3.00;;;22.10;51.60;;;;;;6214300;28;20036;-77
2021/09/20 14:08:43;;;;;;;10.80;2.10;;;22.00;51.70;;;;;;6238976;28;20082;-76
2021/09/20 14:11:44;;;;;;;15.88;6.88;;;21.90;52.20;;;;;;6268929;28;20036;-77
2021/09/20 14:14:45;;;;;;;2.50;1.65;;;21.80;52.80;;;;;;6268990;28;20060;-77
2021/09/20 14:17:47;;;;;;;2.67;1.17;;;21.70;53.40;;;;;;6268891;28;20103;-76
2021/09/20 14:20:48;;;;;;;3.05;1.05;;;21.60;53.80;;;;;;6263472;28;20044;-76
2021/09/20 14:23:49;;;;;;;3.33;1.25;;;21.40;54.40;;;;;;6274040;28;20112;-76
2021/09/20 14:26:50;;;;;;;3.05;1.10;;;21.40;54.90;;;;;;6251343;28;20091;-78
2021/09/20 14:29:51;;;;;;;1.38;0.90;;;21.30;55.40;;;;;;6248072;28;20550;-76
2021/09/20 14:32:53;;;;;;;4.53;1.00;;;21.20;55.80;;;;;;6248347;28;20049;-76
2021/09/20 14:35:54;;;;;;;2.15;1.20;;;21.20;56.10;;;;;;6248698;28;20056;-77
2021/09/20 14:38:55;;;;;;;3.47;0.80;;;21.10;56.50;;;;;;6268371;28;20037;-76
2021/09/20 14:41:57;;;;;;;1.00;0.70;;;21.10;56.60;;;;;;6272979;28;20375;-76
2021/09/20 14:44:58;;;;;;;2.78;1.13;;;21.10;56.90;;;;;;6274323;28;20033;-76
2021/09/20 14:48:01;;;;;;;1.38;0.88;;;21.10;57.50;;;;;;6240112;28;20048;-78
2021/09/20 14:51:04;;;;;;;1.40;0.80;;;21.00;57.70;;;;;;6273829;28;20103;-77
2021/09/20 14:54:05;;;;;;;2.05;0.95;;;20.90;58.00;;;;;;6272870;28;20033;-78
2021/09/20 14:57:06;;;;;;;1.23;0.73;;;20.80;58.20;;;;;;6225604;28;20452;-77
2021/09/20 15:00:10;;;;;;;1.58;0.70;;;20.70;58.40;;;;;;6235272;28;20113;-78
2021/09/20 15:03:11;;;;;;;1.00;0.80;;;20.70;58.70;;;;;;6247711;28;20037;-77
2021/09/20 15:06:12;;;;;;;1.05;0.88;;;20.60;58.80;;;;;;6249576;28;20057;-77
2021/09/20 15:09:13;;;;;;;2.38;1.02;;;20.70;59.00;;;;;;6233585;28;20032;-79
2021/09/20 15:12:14;;;;;;;5.90;1.77;;;20.60;59.20;;;;;;6252124;28;20030;-76
2021/09/20 15:15:16;;;;;;;14.82;7.20;;;20.60;59.50;;;;;;6262410;28;20033;-78
2021/09/20 15:18:17;;;;;;;1.25;0.75;;;20.50;59.70;;;;;;6276742;28;20481;-77
2021/09/20 15:21:19;;;;;;;2.15;0.80;;;20.50;59.70;;;;;;6278227;28;20453;-77
2021/09/20 15:24:22;;;;;;;1.35;0.70;;;20.40;59.80;;;;;;6266273;28;20033;-79
2021/09/20 15:27:23;;;;;;;2.92;0.82;;;20.50;59.90;;;;;;6223922;28;20117;-78
2021/09/20 15:30:24;;;;;;;0.93;0.70;;;20.50;60.00;;;;;;6250039;28;20041;-78
2021/09/20 15:33:26;;;;;;;3.90;0.40;;;20.40;60.40;;;;;;6251204;28;20029;-77
2021/09/20 15:36:27;;;;;;;1.05;0.80;;;20.40;60.70;;;;;;6249622;28;20036;-77
2021/09/20 15:39:28;;;;;;;1.15;0.68;;;20.40;60.80;;;;;;6255504;28;20091;-77
2021/09/20 15:42:29;;;;;;;1.70;0.60;;;20.40;60.90;;;;;;6272591;28;20101;-77
2021/09/20 15:45:32;;;;;;;2.55;0.60;;;20.40;61.10;;;;;;6249476;28;20474;-77
2021/09/20 15:48:33;;;;;;;0.45;0.38;;;20.40;61.10;;;;;;6271151;28;20045;-77